Terminal Aerodrome Forecast
Issued by NWS

Home | Current Version | Previous Version | Text Only | Print | Product List | Glossary On
Versions: 1 2 3 4 5 6 7 8 9 10 11 12 13 14 15 16 17 18 19 20 21 22 23 24 25 26 27 28 29 30 31 32 33 34 35 36 37 38 39 40 41 42 43 44 45 46 47 48 49 50
000
FTUS43 KMKX 230428 AAA
TAFENW
TAF AMD
KENW 230428Z 2304/2324 03005KT 1/4SM FG OVC002
     FM230500 01005KT 1/2SM FG OVC002
      TEMPO 2305/2306 1SM BR OVC005
     FM230600 35005KT 1SM BR OVC005
     FM230700 34006KT 2SM BR OVC003
     FM230900 34005KT 3/4SM BR OVC002
     FM231600 33008KT 5SM BR OVC005
     FM231800 34008KT P6SM BKN008
     FM232200 34006KT P6SM BKN010=

USA.gov is the U.S. government's official web portal to all federal, state and local government web resources and services.